Time;durP1;ratioP1;P1;durP2;ratioP2;P2;SDS_P1;SDS_P2;PMS_P1;PMS_P2;Temp;Humidity;BMP_temperature;BMP_pressure;BME280_temperature;BME280_humidity;BME280_pressure;Samples;Min_cycle;Max_cycle;Signal;HPM_P1;HPM_P2
2023/01/06 00:01:57;;;;;;;46.83;18.10;;;10.50;99.90;;;;;;6129374;23;20017;-82
2023/01/06 00:04:23;;;;;;;42.88;19.50;;;10.20;99.90;;;;;;6154472;23;20029;-82
2023/01/06 00:06:49;;;;;;;43.58;19.58;;;10.10;99.90;;;;;;6153416;23;20456;-82
2023/01/06 00:09:14;;;;;;;44.35;20.13;;;10.10;99.90;;;;;;6152710;23;20452;-82
2023/01/06 00:11:40;;;;;;;46.95;18.77;;;10.10;99.90;;;;;;6152901;23;20022;-83
2023/01/06 00:14:06;;;;;;;57.13;22.25;;;10.10;99.90;;;;;;6128009;23;20318;-82
2023/01/06 00:16:31;;;;;;;47.90;20.65;;;10.10;99.90;;;;;;6153184;23;20048;-82
2023/01/06 00:18:58;;;;;;;49.00;21.00;;;10.20;99.90;;;;;;6152815;23;20053;-82
2023/01/06 00:21:24;;;;;;;53.65;21.10;;;10.10;99.90;;;;;;6154700;23;20332;-82
2023/01/06 00:23:50;;;;;;;49.13;20.50;;;10.20;99.90;;;;;;6154120;23;20041;-82
2023/01/06 00:26:16;;;;;;;44.38;21.33;;;10.10;99.90;;;;;;6153141;23;20032;-83
2023/01/06 00:28:42;;;;;;;51.78;20.80;;;10.20;99.90;;;;;;6129448;23;20487;-82
2023/01/06 00:31:10;;;;;;;49.75;21.77;;;10.20;99.90;;;;;;6153195;23;20080;-82
2023/01/06 00:33:36;;;;;;;45.97;20.48;;;10.30;99.90;;;;;;6153459;23;20021;-82
2023/01/06 00:36:02;;;;;;;50.53;20.50;;;10.20;99.90;;;;;;6152941;23;20070;-82
2023/01/06 00:38:29;;;;;;;52.22;20.23;;;10.20;99.90;;;;;;6152095;23;20013;-82
2023/01/06 00:40:55;;;;;;;45.78;19.60;;;10.20;99.90;;;;;;6154440;23;20005;-82
2023/01/06 00:43:21;;;;;;;47.10;20.23;;;10.20;99.90;;;;;;6152486;23;20092;-82
2023/01/06 00:45:46;;;;;;;47.15;19.23;;;10.20;99.90;;;;;;6128097;23;20053;-82
2023/01/06 00:48:12;;;;;;;43.55;19.35;;;10.30;99.90;;;;;;6152938;23;20013;-82
2023/01/06 00:50:38;;;;;;;44.10;20.10;;;10.20;99.90;;;;;;6152811;23;20041;-82
2023/01/06 00:53:03;;;;;;;41.15;19.02;;;10.20;99.90;;;;;;6151893;23;20017;-82
2023/01/06 00:55:29;;;;;;;40.00;17.65;;;10.10;99.90;;;;;;6151885;23;20013;-82
2023/01/06 00:57:55;;;;;;;41.00;17.23;;;10.20;99.90;;;;;;6152768;23;20025;-82
2023/01/06 01:00:21;;;;;;;35.63;16.23;;;10.20;99.90;;;;;;6152981;23;20014;-82
2023/01/06 01:02:47;;;;;;;33.22;17.55;;;10.20;99.90;;;;;;6154557;23;20336;-82
2023/01/06 01:05:13;;;;;;;39.80;16.85;;;10.20;99.90;;;;;;6128595;23;20017;-81
2023/01/06 01:07:39;;;;;;;35.53;16.08;;;10.20;99.90;;;;;;6154606;23;20013;-82
2023/01/06 01:10:06;;;;;;;38.40;16.63;;;10.30;99.90;;;;;;6153004;23;20054;-81
2023/01/06 01:12:32;;;;;;;31.38;16.42;;;10.20;99.90;;;;;;6154255;23;20448;-82
2023/01/06 01:14:58;;;;;;;29.73;16.08;;;10.20;99.90;;;;;;6098377;23;20078;-82
2023/01/06 01:17:26;;;;;;;32.83;16.02;;;10.40;99.90;;;;;;6098824;23;20377;-82
2023/01/06 01:19:54;;;;;;;31.58;15.35;;;10.20;99.90;;;;;;6099723;23;20024;-82
2023/01/06 01:22:21;;;;;;;32.33;15.75;;;10.40;99.90;;;;;;6074547;23;20072;-82
2023/01/06 01:24:47;;;;;;;29.20;14.25;;;10.20;99.90;;;;;;6074486;23;20014;-81
2023/01/06 01:27:12;;;;;;;25.23;14.93;;;10.20;99.90;;;;;;6098307;23;20044;-83
2023/01/06 01:29:38;;;;;;;26.42;14.07;;;10.20;99.90;;;;;;6098631;23;20133;-82
2023/01/06 01:32:04;;;;;;;25.25;13.18;;;10.20;99.90;;;;;;6098236;23;20010;-81
2023/01/06 01:34:30;;;;;;;23.10;11.68;;;10.20;99.90;;;;;;6098060;23;20322;-82
2023/01/06 01:36:55;;;;;;;19.65;11.10;;;10.20;99.90;;;;;;6123480;23;20021;-82
2023/01/06 01:39:24;;;;;;;27.25;11.65;;;10.20;99.90;;;;;;6097947;23;20022;-81
2023/01/06 01:41:51;;;;;;;20.77;11.35;;;10.20;99.90;;;;;;6124222;23;20014;-82
2023/01/06 01:44:54;;;;;;;19.55;10.27;;;10.10;99.90;;;;;;6098001;23;20013;-82
2023/01/06 01:47:29;;;;;;;25.00;12.00;;;10.20;99.90;;;;;;6124494;23;20021;-82
2023/01/06 01:50:04;;;;;;;24.42;11.07;;;10.20;99.90;;;;;;6097585;23;20249;-82
2023/01/06 01:52:32;;;;;;;26.30;11.52;;;10.20;99.90;;;;;;6124294;23;20009;-81
2023/01/06 01:54:58;;;;;;;19.50;11.80;;;10.20;99.90;;;;;;6097775;23;20069;-82
2023/01/06 01:57:55;;;;;;;22.25;12.07;;;10.20;99.90;;;;;;6124446;23;20014;-81
2023/01/06 02:00:21;;;;;;;22.48;12.98;;;10.20;99.90;;;;;;6124274;23;20408;-82
2023/01/06 02:02:48;;;;;;;20.88;12.15;;;10.30;99.90;;;;;;6097847;23;20014;-82
2023/01/06 02:05:19;;;;;;;23.35;12.52;;;10.10;99.90;;;;;;6124364;23;20021;-82
2023/01/06 02:07:46;;;;;;;22.38;12.95;;;10.10;99.90;;;;;;6098944;23;20149;-82
2023/01/06 02:10:17;;;;;;;23.30;12.20;;;10.20;99.90;;;;;;6124117;23;20010;-82
2023/01/06 02:12:46;;;;;;;21.35;12.48;;;10.10;99.90;;;;;;6099974;23;20017;-82
2023/01/06 02:15:30;;;;;;;21.35;12.82;;;10.20;99.90;;;;;;6152086;23;20080;-81
2023/01/06 02:18:11;;;;;;;20.92;13.05;;;10.10;99.90;;;;;;6154073;23;20024;-82
2023/01/06 02:20:42;;;;;;;21.23;12.35;;;10.10;99.90;;;;;;6126981;23;20049;-82
2023/01/06 02:23:39;;;;;;;18.95;12.20;;;10.10;99.90;;;;;;6151857;23;20097;-82
2023/01/06 02:26:17;;;;;;;23.63;12.00;;;10.10;99.90;;;;;;6153828;23;20369;-82
2023/01/06 02:29:26;;;;;;;18.27;11.02;;;10.10;99.90;;;;;;6153485;23;20072;-82
2023/01/06 02:32:00;;;;;;;18.02;10.65;;;10.10;99.90;;;;;;6038912;23;20014;-81
2023/01/06 02:34:31;;;;;;;21.85;11.00;;;10.10;99.90;;;;;;6038355;23;20026;-82
2023/01/06 02:37:17;;;;;;;21.23;10.50;;;10.10;99.90;;;;;;6038691;23;20022;-82
2023/01/06 02:39:51;;;;;;;18.88;10.10;;;10.20;99.90;;;;;;6039089;23;20050;-82
2023/01/06 02:42:41;;;;;;;19.92;10.65;;;10.10;99.90;;;;;;6015216;23;20018;-81
2023/01/06 02:45:26;;;;;;;21.77;9.77;;;10.10;99.90;;;;;;6039687;23;20078;-81
2023/01/06 02:47:52;;;;;;;19.33;10.02;;;10.10;99.90;;;;;;6062240;23;20015;-81
2023/01/06 02:50:36;;;;;;;17.58;9.15;;;10.10;99.90;;;;;;6062846;23;20046;-82
2023/01/06 02:53:20;;;;;;;;;;;10.10;99.90;;;;;;6039674;23;20077;-82
2023/01/06 02:55:54;;;;;;;16.98;9.65;;;10.10;99.90;;;;;;6063339;23;19918;-82
2023/01/06 02:58:57;;;;;;;21.00;9.60;;;10.10;99.90;;;;;;6038803;23;20443;-81
2023/01/06 03:01:35;;;;;;;18.63;8.70;;;10.10;99.90;;;;;;6064719;23;20018;-82
2023/01/06 03:04:06;;;;;;;13.98;8.95;;;10.10;99.90;;;;;;6153249;23;20010;-82
2023/01/06 03:06:34;;;;;;;17.35;9.48;;;10.10;99.90;;;;;;6151608;23;20010;-82
2023/01/06 03:09:00;;;;;;;16.60;9.50;;;10.10;99.90;;;;;;6153714;23;20412;-82
2023/01/06 03:11:28;;;;;;;16.48;9.02;;;10.20;99.90;;;;;;6151540;23;20027;-82
2023/01/06 03:14:14;;;;;;;16.58;9.45;;;10.10;99.90;;;;;;6151334;23;20021;-82
2023/01/06 03:16:40;;;;;;;19.08;9.75;;;10.10;99.90;;;;;;6151377;23;20068;-82
2023/01/06 03:19:06;;;;;;;17.38;9.57;;;10.10;99.90;;;;;;6153143;23;20037;-82
2023/01/06 03:21:36;;;;;;;21.38;8.93;;;10.10;99.90;;;;;;6153330;23;20422;-82
2023/01/06 03:24:05;;;;;;;20.92;10.35;;;10.10;99.90;;;;;;6155120;23;20496;-82
2023/01/06 03:26:31;;;;;;;15.80;9.23;;;10.10;99.90;;;;;;6154803;23;20033;-82
2023/01/06 03:28:57;;;;;;;13.57;9.07;;;10.10;99.90;;;;;;6155133;23;20048;-82
2023/01/06 03:31:59;;;;;;;14.52;8.95;;;10.30;99.90;;;;;;6152786;23;20021;-82
2023/01/06 03:34:28;;;;;;;13.23;8.73;;;10.10;99.90;;;;;;6135866;23;20071;-82
2023/01/06 03:36:59;;;;;;;16.90;8.65;;;10.00;99.90;;;;;;6155021;23;20387;-82
2023/01/06 03:39:41;;;;;;;15.65;9.23;;;10.10;99.90;;;;;;6154723;23;20010;-82
2023/01/06 03:45:35;;;;;;;13.80;9.60;;;10.00;99.90;;;;;;6153432;23;20022;-83
2023/01/06 03:48:15;;;;;;;14.15;8.70;;;10.00;99.90;;;;;;6154932;23;20014;-82
2023/01/06 03:51:05;;;;;;;12.00;8.75;;;10.00;99.90;;;;;;6153693;23;20064;-82
2023/01/06 03:53:41;;;;;;;16.95;9.32;;;10.00;99.90;;;;;;6153438;23;20092;-82
2023/01/06 03:56:16;;;;;;;13.60;8.63;;;10.00;99.90;;;;;;6152894;23;20410;-82
2023/01/06 03:58:45;;;;;;;11.02;8.60;;;10.00;99.90;;;;;;6155429;23;20406;-82
2023/01/06 04:01:12;;;;;;;13.50;9.52;;;10.00;99.90;;;;;;6152486;23;20013;-83
2023/01/06 04:03:38;;;;;;;13.35;9.00;;;10.00;99.90;;;;;;6154978;23;20032;-82
2023/01/06 04:06:04;;;;;;;15.20;9.45;;;10.20;99.90;;;;;;6153138;23;20510;-82
2023/01/06 04:08:30;;;;;;;17.50;9.75;;;10.00;99.90;;;;;;6153240;23;20009;-82
2023/01/06 04:10:55;;;;;;;16.88;10.40;;;10.00;99.90;;;;;;6155015;23;20025;-82
2023/01/06 04:13:21;;;;;;;13.35;9.80;;;10.10;99.90;;;;;;6154901;23;20025;-82
2023/01/06 04:15:46;;;;;;;15.05;10.65;;;10.00;99.90;;;;;;6128616;23;20449;-82
2023/01/06 04:18:12;;;;;;;14.68;10.65;;;10.00;99.90;;;;;;6153818;23;20028;-82
2023/01/06 04:20:38;;;;;;;14.98;10.32;;;10.00;99.90;;;;;;6153052;23;20340;-81
2023/01/06 04:23:03;;;;;;;16.02;10.13;;;10.00;99.90;;;;;;6152990;23;20018;-82
2023/01/06 04:25:29;;;;;;;14.18;9.70;;;10.00;99.90;;;;;;6152722;23;20021;-82
2023/01/06 04:27:55;;;;;;;12.05;9.02;;;10.10;99.90;;;;;;6154649;23;20052;-82
2023/01/06 04:30:20;;;;;;;12.05;9.13;;;10.00;99.90;;;;;;6152198;23;20463;-82
2023/01/06 04:32:46;;;;;;;13.65;8.60;;;10.00;99.90;;;;;;6153404;23;20006;-82
2023/01/06 04:35:12;;;;;;;14.00;7.60;;;10.00;99.90;;;;;;6153040;23;20080;-82
2023/01/06 04:37:37;;;;;;;11.65;7.88;;;10.00;99.90;;;;;;6155123;23;20136;-83
2023/01/06 04:40:03;;;;;;;14.18;7.70;;;10.00;99.90;;;;;;6128214;23;20064;-83
2023/01/06 04:43:02;;;;;;;10.30;6.75;;;10.00;99.90;;;;;;6154681;23;20010;-82
2023/01/06 04:45:14;;;;;;;14.65;6.50;;;10.00;99.90;;;;;;6152132;23;20025;-82
2023/01/06 04:47:40;;;;;;;8.85;6.03;;;10.00;99.90;;;;;;6154671;23;20318;-83
2023/01/06 04:50:06;;;;;;;8.45;5.13;;;10.00;99.90;;;;;;6153302;23;20084;-82
2023/01/06 04:52:31;;;;;;;9.02;5.40;;;10.00;99.90;;;;;;6128287;23;20018;-82
2023/01/06 04:54:57;;;;;;;9.77;6.07;;;10.10;99.90;;;;;;6154101;23;20025;-83
2023/01/06 04:57:23;;;;;;;7.25;4.80;;;10.10;99.90;;;;;;6154405;23;20017;-82
2023/01/06 04:59:48;;;;;;;8.98;4.93;;;10.10;99.90;;;;;;6152543;23;20021;-82
2023/01/06 05:02:14;;;;;;;8.85;5.00;;;10.10;99.90;;;;;;6154229;23;20014;-82
2023/01/06 05:04:39;;;;;;;9.40;5.32;;;10.10;99.90;;;;;;6154794;23;20017;-83
2023/01/06 05:07:05;;;;;;;10.23;5.70;;;10.10;99.90;;;;;;6128424;23;20026;-82
2023/01/06 05:09:30;;;;;;;9.40;5.57;;;10.20;99.90;;;;;;6153058;23;20033;-82
2023/01/06 05:11:56;;;;;;;7.32;5.38;;;10.00;99.90;;;;;;6152761;23;20018;-83
2023/01/06 05:14:22;;;;;;;9.00;5.53;;;10.00;99.90;;;;;;6127268;23;20364;-82
2023/01/06 05:16:47;;;;;;;8.75;5.85;;;10.00;99.90;;;;;;6154528;23;20089;-83
2023/01/06 05:19:13;;;;;;;9.98;6.10;;;10.00;99.90;;;;;;6154525;23;20055;-82
2023/01/06 05:21:38;;;;;;;7.55;5.75;;;10.10;99.90;;;;;;6153285;23;20064;-82
2023/01/06 05:24:04;;;;;;;9.00;6.22;;;10.00;99.90;;;;;;6152938;23;20017;-83
2023/01/06 05:26:30;;;;;;;10.25;6.93;;;10.00;99.90;;;;;;6152677;23;20009;-82
2023/01/06 05:28:55;;;;;;;9.65;7.13;;;10.20;99.90;;;;;;6153996;23;20013;-83
2023/01/06 05:31:22;;;;;;;10.30;7.85;;;10.00;99.90;;;;;;6152663;23;20017;-82
2023/01/06 05:33:47;;;;;;;8.43;7.53;;;10.20;99.90;;;;;;6154467;23;20016;-82
2023/01/06 05:36:15;;;;;;;11.75;7.65;;;10.10;99.90;;;;;;6152642;23;20014;-82
2023/01/06 05:38:41;;;;;;;12.65;8.93;;;10.10;99.90;;;;;;6128187;23;20515;-83
2023/01/06 05:41:07;;;;;;;12.90;8.90;;;10.10;99.90;;;;;;6152127;23;20067;-82
2023/01/06 05:43:35;;;;;;;12.32;8.68;;;10.10;99.90;;;;;;6153306;23;20020;-82
2023/01/06 05:46:05;;;;;;;12.45;9.18;;;10.10;99.90;;;;;;6154215;23;20036;-82
2023/01/06 05:48:31;;;;;;;12.20;8.95;;;10.00;99.90;;;;;;6154094;23;20388;-82
2023/01/06 05:51:01;;;;;;;11.27;8.60;;;10.10;99.90;;;;;;6152705;23;20025;-82
2023/01/06 05:53:30;;;;;;;9.52;7.95;;;10.40;99.90;;;;;;6152183;23;20013;-81
2023/01/06 05:56:00;;;;;;;11.13;8.55;;;10.40;99.90;;;;;;6152758;23;20065;-82
2023/01/06 05:58:26;;;;;;;9.60;8.13;;;10.10;99.90;;;;;;6151569;23;20017;-83
2023/01/06 06:00:51;;;;;;;9.85;7.97;;;10.10;99.90;;;;;;6128013;23;20025;-82
2023/01/06 06:03:17;;;;;;;13.80;9.00;;;10.20;99.90;;;;;;6154518;23;20420;-83
2023/01/06 06:05:43;;;;;;;10.07;8.90;;;10.00;99.90;;;;;;6154231;23;20425;-82
2023/01/06 06:08:08;;;;;;;15.07;9.15;;;10.00;99.90;;;;;;6152211;23;20028;-82
2023/01/06 06:10:34;;;;;;;12.82;9.43;;;10.00;99.90;;;;;;6153715;23;20060;-82
2023/01/06 06:12:59;;;;;;;13.35;9.18;;;10.00;99.90;;;;;;6153222;23;20018;-82
2023/01/06 06:15:25;;;;;;;12.07;8.35;;;10.00;99.90;;;;;;6127858;23;20033;-82
2023/01/06 06:17:51;;;;;;;10.52;9.48;;;9.90;99.90;;;;;;6153743;23;20014;-82
2023/01/06 06:20:16;;;;;;;14.60;9.23;;;9.90;99.90;;;;;;6154053;23;20374;-82
2023/01/06 06:22:42;;;;;;;13.25;9.63;;;9.90;99.90;;;;;;6127682;23;20010;-82
2023/01/06 06:25:08;;;;;;;13.07;10.48;;;9.90;99.90;;;;;;6152378;23;20025;-82
2023/01/06 06:27:33;;;;;;;14.35;10.85;;;9.90;99.90;;;;;;6126478;23;20024;-82
2023/01/06 06:29:59;;;;;;;14.68;11.43;;;10.00;99.90;;;;;;6153809;23;20009;-81
2023/01/06 06:32:28;;;;;;;12.52;11.10;;;9.90;99.90;;;;;;6151694;23;20337;-81
2023/01/06 06:34:53;;;;;;;14.38;11.73;;;9.90;99.90;;;;;;6151970;23;20026;-83
2023/01/06 06:37:19;;;;;;;13.57;12.25;;;9.90;99.90;;;;;;6153700;23;20089;-81
2023/01/06 06:39:45;;;;;;;14.35;12.65;;;9.90;99.90;;;;;;6153042;23;20495;-82
2023/01/06 06:42:10;;;;;;;19.45;14.18;;;9.90;99.90;;;;;;6153324;23;20013;-81
2023/01/06 06:44:36;;;;;;;14.27;12.80;;;9.80;99.90;;;;;;6153799;23;20444;-83
2023/01/06 06:47:01;;;;;;;15.77;13.70;;;9.90;99.90;;;;;;6152703;23;20017;-81
2023/01/06 06:49:27;;;;;;;14.55;13.15;;;9.80;99.90;;;;;;6153375;23;20005;-82
2023/01/06 06:51:53;;;;;;;15.95;14.23;;;9.80;99.90;;;;;;6127415;23;20013;-82
2023/01/06 06:54:18;;;;;;;15.93;14.23;;;10.00;99.90;;;;;;6152880;23;20010;-82
2023/01/06 06:56:44;;;;;;;16.80;15.10;;;9.90;99.90;;;;;;6155656;23;20061;-81
2023/01/06 06:59:09;;;;;;;15.88;14.18;;;9.80;99.90;;;;;;6155268;23;20014;-82
2023/01/06 07:01:35;;;;;;;15.35;13.85;;;9.80;99.90;;;;;;6128845;23;20433;-81
2023/01/06 07:04:01;;;;;;;16.25;14.55;;;9.80;99.90;;;;;;6155638;23;20454;-82
2023/01/06 07:06:26;;;;;;;15.73;13.55;;;9.80;99.90;;;;;;6153515;23;20021;-81
2023/01/06 07:08:53;;;;;;;15.45;13.60;;;9.80;99.90;;;;;;6152827;23;20017;-82
2023/01/06 07:11:19;;;;;;;15.77;14.25;;;9.80;99.90;;;;;;6153355;23;20014;-82
2023/01/06 07:13:45;;;;;;;14.98;13.40;;;9.80;99.90;;;;;;6153644;23;20020;-81
2023/01/06 07:16:11;;;;;;;15.95;14.43;;;9.80;99.90;;;;;;6155430;23;20061;-81
2023/01/06 07:18:37;;;;;;;17.48;13.75;;;9.80;99.90;;;;;;6153429;23;20325;-82
2023/01/06 07:21:04;;;;;;;18.08;15.25;;;9.80;99.90;;;;;;6155733;23;20329;-81
2023/01/06 07:23:30;;;;;;;16.08;14.43;;;9.80;99.90;;;;;;6154925;23;20045;-82
2023/01/06 07:25:58;;;;;;;15.00;13.55;;;9.70;99.90;;;;;;6153725;23;20068;-82
2023/01/06 07:28:25;;;;;;;14.13;12.68;;;9.80;99.90;;;;;;6154942;23;20084;-81
2023/01/06 07:30:51;;;;;;;14.63;12.73;;;9.80;99.90;;;;;;6155175;23;20183;-82
2023/01/06 07:33:17;;;;;;;12.80;11.60;;;9.80;99.90;;;;;;6154838;23;20035;-82
2023/01/06 07:35:43;;;;;;;12.43;11.07;;;10.00;99.90;;;;;;6153169;23;20104;-81
2023/01/06 07:38:09;;;;;;;14.60;11.38;;;9.80;99.90;;;;;;6154419;23;20005;-81
2023/01/06 07:40:35;;;;;;;11.63;10.52;;;10.00;99.90;;;;;;6153188;23;20141;-81
2023/01/06 07:43:08;;;;;;;11.55;10.13;;;9.80;99.90;;;;;;6154947;23;20576;-81
2023/01/06 07:45:34;;;;;;;9.35;8.43;;;9.80;99.90;;;;;;6153784;23;20013;-80
2023/01/06 07:48:00;;;;;;;9.15;7.70;;;9.80;99.90;;;;;;6153146;23;20044;-80
2023/01/06 07:50:27;;;;;;;9.63;7.15;;;9.80;99.90;;;;;;6153112;23;20017;-81
2023/01/06 07:52:55;;;;;;;8.85;5.88;;;9.80;99.90;;;;;;6152417;23;20076;-80
2023/01/06 07:55:21;;;;;;;6.78;4.70;;;10.00;99.90;;;;;;6152715;23;20026;-81
2023/01/06 07:57:46;;;;;;;7.53;4.40;;;9.80;99.90;;;;;;6154804;23;20279;-80
2023/01/06 08:00:12;;;;;;;9.80;4.80;;;9.80;99.90;;;;;;6153259;23;20016;-81
2023/01/06 08:02:38;;;;;;;7.50;4.40;;;9.80;99.90;;;;;;6155259;23;20392;-82
2023/01/06 08:05:04;;;;;;;9.43;4.05;;;9.80;99.90;;;;;;6153135;23;20025;-81
2023/01/06 08:07:30;;;;;;;7.45;3.58;;;9.80;99.90;;;;;;6154484;23;20072;-82
2023/01/06 08:09:55;;;;;;;7.75;2.70;;;9.80;99.90;;;;;;6153430;23;20021;-81
2023/01/06 08:12:21;;;;;;;8.07;2.67;;;9.70;99.90;;;;;;6153287;23;20033;-82
2023/01/06 08:14:46;;;;;;;5.28;2.30;;;9.70;99.90;;;;;;6154842;23;20014;-80
2023/01/06 08:17:13;;;;;;;6.03;2.33;;;9.50;99.90;;;;;;6155277;23;20037;-81
2023/01/06 08:19:38;;;;;;;6.53;2.50;;;9.50;99.90;;;;;;6154044;23;20340;-82
2023/01/06 08:22:05;;;;;;;7.10;2.10;;;9.40;99.90;;;;;;6153354;23;20020;-81
2023/01/06 08:24:30;;;;;;;7.97;1.90;;;9.20;99.90;;;;;;6155200;23;20085;-82
2023/01/06 08:26:56;;;;;;;7.60;1.77;;;9.20;99.90;;;;;;6153418;23;20056;-81
2023/01/06 08:29:23;;;;;;;7.00;1.95;;;9.00;99.90;;;;;;6153654;23;20036;-81
2023/01/06 08:31:49;;;;;;;6.95;1.88;;;9.00;99.90;;;;;;6155378;23;20016;-82
2023/01/06 08:34:15;;;;;;;3.67;1.58;;;8.90;99.90;;;;;;6154416;23;20009;-82
2023/01/06 08:36:42;;;;;;;7.40;2.08;;;9.00;99.90;;;;;;6153764;23;20009;-82
2023/01/06 08:39:07;;;;;;;3.72;1.48;;;8.90;99.90;;;;;;6153959;23;20014;-81
2023/01/06 08:41:33;;;;;;;5.60;1.50;;;8.60;99.90;;;;;;6153432;23;20482;-82
2023/01/06 08:43:59;;;;;;;8.07;1.55;;;9.00;99.90;;;;;;6153777;23;20085;-82
2023/01/06 08:46:25;;;;;;;6.78;1.58;;;8.70;99.90;;;;;;6153970;23;20031;-82
2023/01/06 08:48:51;;;;;;;7.15;1.48;;;8.50;99.90;;;;;;6151992;23;20017;-82
2023/01/06 08:51:22;;;;;;;9.88;1.50;;;8.70;99.90;;;;;;6151529;23;20021;-82
2023/01/06 08:53:48;;;;;;;10.00;1.85;;;8.40;99.90;;;;;;6151964;23;20046;-82
2023/01/06 08:56:19;;;;;;;7.60;1.65;;;8.40;99.90;;;;;;6153785;23;20092;-82
2023/01/06 08:58:44;;;;;;;9.20;1.60;;;8.30;99.90;;;;;;6151837;23;20068;-82
2023/01/06 09:01:18;;;;;;;9.90;1.20;;;8.30;99.90;;;;;;6153533;23;20429;-82
2023/01/06 09:03:44;;;;;;;8.20;1.95;;;8.30;99.90;;;;;;6151822;23;20017;-82
2023/01/06 09:06:10;;;;;;;9.90;1.80;;;8.30;99.90;;;;;;6151211;23;20326;-82
2023/01/06 09:08:36;;;;;;;7.53;1.60;;;8.50;99.90;;;;;;6153737;23;20014;-82
2023/01/06 09:11:10;;;;;;;9.40;1.60;;;8.20;99.90;;;;;;6151723;23;20013;-82
2023/01/06 09:13:37;;;;;;;18.83;2.45;;;8.20;99.90;;;;;;6151773;23;20028;-82
2023/01/06 09:16:09;;;;;;;10.02;2.10;;;8.20;99.90;;;;;;6153058;23;20032;-82
2023/01/06 09:18:35;;;;;;;9.38;1.85;;;8.20;99.90;;;;;;6151947;23;20014;-82
2023/01/06 09:21:02;;;;;;;9.70;2.20;;;8.10;99.90;;;;;;6126964;23;20021;-82
2023/01/06 09:23:28;;;;;;;11.35;1.95;;;8.10;99.90;;;;;;6154152;23;20009;-82
2023/01/06 09:25:54;;;;;;;14.63;2.38;;;8.20;99.90;;;;;;6153512;23;20088;-82
2023/01/06 09:28:20;;;;;;;12.13;2.38;;;8.10;99.90;;;;;;6151475;23;20013;-82
2023/01/06 09:30:47;;;;;;;10.13;2.55;;;8.10;99.90;;;;;;6151475;23;20109;-82
2023/01/06 09:33:13;;;;;;;13.98;2.35;;;8.10;99.90;;;;;;6153111;23;20017;-82
2023/01/06 09:35:39;;;;;;;10.00;2.33;;;8.20;99.90;;;;;;6150923;23;20109;-82
2023/01/06 09:38:05;;;;;;;15.00;2.63;;;8.10;99.90;;;;;;6153441;23;20063;-82
2023/01/06 09:40:47;;;;;;;11.82;2.03;;;8.10;99.90;;;;;;6153177;23;20017;-81
2023/01/06 09:43:49;;;;;;;9.77;2.30;;;8.10;99.90;;;;;;6151623;23;20005;-82
2023/01/06 09:46:18;;;;;;;15.98;2.60;;;8.10;99.90;;;;;;6150622;23;20584;-82
2023/01/06 09:49:15;;;;;;;11.93;2.28;;;8.20;99.90;;;;;;6151049;23;20024;-82
2023/01/06 09:51:42;;;;;;;16.23;2.70;;;8.10;99.90;;;;;;6151793;23;20028;-81
2023/01/06 09:54:23;;;;;;;18.75;3.20;;;8.20;99.90;;;;;;6151266;23;20429;-82
2023/01/06 09:57:00;;;;;;;18.15;2.47;;;8.20;99.90;;;;;;6153599;23;20014;-82
2023/01/06 09:59:35;;;;;;;13.32;2.72;;;8.10;99.90;;;;;;6151562;23;20025;-82
2023/01/06 10:02:04;;;;;;;13.73;2.55;;;8.20;99.90;;;;;;6151172;23;20013;-82
2023/01/06 10:04:30;;;;;;;14.50;2.92;;;8.20;99.90;;;;;;6150769;23;20397;-82
2023/01/06 10:07:22;;;;;;;11.00;2.38;;;8.30;99.90;;;;;;6151392;23;20017;-82
2023/01/06 10:10:34;;;;;;;11.48;2.60;;;8.20;99.90;;;;;;6151418;23;20041;-82
2023/01/06 10:13:23;;;;;;;15.25;2.92;;;8.30;99.90;;;;;;6152432;23;20017;-80
2023/01/06 10:16:14;;;;;;;18.02;3.22;;;8.30;99.90;;;;;;6152341;23;20353;-82
2023/01/06 10:19:04;;;;;;;10.98;2.50;;;8.30;99.90;;;;;;6152399;23;20057;-83
2023/01/06 10:21:45;;;;;;;13.90;2.47;;;8.40;99.90;;;;;;6152952;23;20013;-83
2023/01/06 10:24:33;;;;;;;16.05;2.30;;;8.40;99.90;;;;;;6155625;23;20024;-83
2023/01/06 10:27:17;;;;;;;13.68;2.50;;;8.40;99.90;;;;;;6154812;23;20492;-82
2023/01/06 10:29:43;;;;;;;15.30;2.30;;;8.40;99.90;;;;;;6128371;23;20013;-82
2023/01/06 10:32:14;;;;;;;15.32;2.90;;;8.80;99.90;;;;;;6152264;23;20017;-83
2023/01/06 10:34:40;;;;;;;17.83;2.40;;;8.40;99.90;;;;;;6154157;23;20013;-83
2023/01/06 10:37:09;;;;;;;16.02;2.97;;;8.40;99.90;;;;;;6154733;23;20017;-83
2023/01/06 10:39:37;;;;;;;17.05;2.35;;;8.40;99.90;;;;;;6155465;23;20014;-81
2023/01/06 10:42:59;;;;;;;17.45;2.65;;;8.50;99.90;;;;;;6152149;23;20332;-81
2023/01/06 10:45:43;;;;;;;15.95;2.75;;;8.50;99.90;;;;;;6153404;23;20340;-80
2023/01/06 10:48:24;;;;;;;13.38;2.47;;;8.50;99.90;;;;;;6150989;23;20013;-82
2023/01/06 10:50:49;;;;;;;14.13;2.47;;;8.50;99.90;;;;;;6152168;23;20036;-81
2023/01/06 10:53:15;;;;;;;14.63;3.47;;;8.50;99.90;;;;;;6126924;23;20017;-81
2023/01/06 10:55:53;;;;;;;15.35;3.33;;;8.50;99.90;;;;;;6153446;23;20025;-80
2023/01/06 10:58:47;;;;;;;11.82;2.35;;;8.50;99.90;;;;;;6152682;23;20014;-81
2023/01/06 11:01:15;;;;;;;13.30;2.30;;;8.60;99.90;;;;;;6151148;23;20013;-80
2023/01/06 11:03:41;;;;;;;15.27;2.60;;;8.60;99.90;;;;;;6151987;23;20017;-82
2023/01/06 11:06:25;;;;;;;17.67;2.90;;;8.70;99.90;;;;;;6153535;23;20013;-81
2023/01/06 11:08:51;;;;;;;13.48;2.65;;;8.70;99.90;;;;;;6151700;23;20444;-81
2023/01/06 11:11:18;;;;;;;19.70;3.30;;;8.90;99.90;;;;;;6127099;23;20052;-81
2023/01/06 11:14:00;;;;;;;14.75;3.15;;;8.80;99.90;;;;;;6151084;23;20055;-81
2023/01/06 11:16:35;;;;;;;13.88;2.67;;;8.90;99.90;;;;;;6151674;23;20053;-81
2023/01/06 11:19:06;;;;;;;10.50;2.10;;;9.00;99.90;;;;;;6151756;23;20151;-81
2023/01/06 11:21:45;;;;;;;14.38;2.58;;;9.00;99.90;;;;;;6153530;23;20021;-81
2023/01/06 11:24:16;;;;;;;13.65;2.20;;;9.10;99.90;;;;;;6126942;23;20079;-81
2023/01/06 11:26:51;;;;;;;13.88;2.75;;;9.30;99.90;;;;;;6153613;23;20024;-81
2023/01/06 11:29:26;;;;;;;16.40;3.10;;;9.40;99.90;;;;;;6127453;23;20018;-82
2023/01/06 11:31:52;;;;;;;18.25;3.17;;;9.40;99.90;;;;;;6152705;23;20052;-81
2023/01/06 11:34:29;;;;;;;11.27;2.25;;;9.60;99.90;;;;;;6151564;23;20068;-82
2023/01/06 11:36:56;;;;;;;15.80;2.58;;;9.60;99.90;;;;;;6153321;23;20445;-81
2023/01/06 11:39:27;;;;;;;13.77;2.53;;;9.60;99.90;;;;;;6154480;23;20006;-81
2023/01/06 11:41:55;;;;;;;9.65;2.35;;;9.50;99.90;;;;;;6153488;23;20080;-81
2023/01/06 11:44:35;;;;;;;13.98;2.67;;;9.50;99.90;;;;;;6154809;23;20025;-81
2023/01/06 11:47:21;;;;;;;11.30;3.03;;;9.40;99.90;;;;;;6154026;23;20048;-81
2023/01/06 11:49:51;;;;;;;19.05;2.80;;;9.40;99.90;;;;;;6152854;23;20052;-79
2023/01/06 11:52:21;;;;;;;15.88;2.92;;;9.30;99.90;;;;;;6154814;23;20010;-79
2023/01/06 11:55:08;;;;;;;14.55;2.80;;;9.30;99.90;;;;;;6154439;23;20024;-80
2023/01/06 11:58:05;;;;;;;14.20;2.63;;;9.30;99.90;;;;;;6148999;23;20022;-81
2023/01/06 12:00:43;;;;;;;12.82;2.50;;;9.40;99.90;;;;;;6151095;23;20092;-82
2023/01/06 12:03:40;;;;;;;13.02;2.85;;;9.40;99.90;;;;;;6152949;23;20013;-82
2023/01/06 12:06:12;;;;;;;17.77;3.30;;;9.40;99.90;;;;;;6128134;23;20340;-81
2023/01/06 12:09:00;;;;;;;16.85;3.67;;;9.60;99.90;;;;;;6152280;23;20092;-81
2023/01/06 12:11:45;;;;;;;20.27;3.08;;;9.60;99.90;;;;;;6152406;23;20014;-80
2023/01/06 12:14:22;;;;;;;11.20;2.58;;;9.60;99.90;;;;;;6151472;23;20057;-81
2023/01/06 12:16:54;;;;;;;15.23;3.00;;;9.70;99.90;;;;;;6152609;23;20515;-80
2023/01/06 12:19:46;;;;;;;13.07;2.55;;;9.60;99.90;;;;;;6153757;23;20033;-81
2023/01/06 12:22:35;;;;;;;14.55;3.03;;;9.60;99.90;;;;;;6151951;23;20041;-80
2023/01/06 12:25:02;;;;;;;13.43;3.03;;;9.60;99.90;;;;;;6152284;23;20080;-80
2023/01/06 12:27:38;;;;;;;11.25;2.72;;;9.60;99.90;;;;;;6153761;23;20021;-81
2023/01/06 12:30:12;;;;;;;12.93;2.90;;;9.50;99.90;;;;;;6151512;23;20018;-81
2023/01/06 12:32:42;;;;;;;13.32;2.72;;;9.50;99.90;;;;;;6153929;23;20017;-81
2023/01/06 12:35:15;;;;;;;16.33;3.22;;;9.50;99.90;;;;;;6152662;23;20024;-81
2023/01/06 12:37:52;;;;;;;14.90;3.08;;;9.80;99.90;;;;;;6152201;23;20013;-81
2023/01/06 12:40:33;;;;;;;13.45;2.42;;;9.40;99.90;;;;;;6151831;23;20018;-82
2023/01/06 12:43:09;;;;;;;14.73;2.50;;;9.30;99.90;;;;;;6151271;23;20009;-80
2023/01/06 12:46:02;;;;;;;13.90;2.75;;;9.30;99.90;;;;;;6127434;23;20021;-81
2023/01/06 12:48:48;;;;;;;14.18;2.80;;;9.30;99.90;;;;;;6152154;23;20018;-82
2023/01/06 12:51:24;;;;;;;11.70;2.90;;;9.20;99.90;;;;;;6151675;23;20047;-82
2023/01/06 12:54:00;;;;;;;12.48;3.25;;;9.20;99.90;;;;;;6151633;23;20076;-82
2023/01/06 12:56:50;;;;;;;10.85;2.97;;;9.20;99.90;;;;;;6151586;23;20131;-82
2023/01/06 12:59:24;;;;;;;16.33;3.10;;;9.20;99.90;;;;;;6151102;23;20445;-82
2023/01/06 13:02:14;;;;;;;20.23;3.45;;;9.20;99.90;;;;;;6151910;23;20018;-81
2023/01/06 13:04:43;;;;;;;13.32;2.67;;;9.20;99.90;;;;;;6153579;23;20314;-82